createdAt,value
2022-08-09T00:01:37.251Z,1.33
2022-08-09T00:07:10.487Z,1.25
2022-08-09T00:09:38.263Z,1.60
2022-08-09T00:12:05.767Z,1.95
2022-08-09T00:17:06.036Z,2.00
2022-08-09T00:22:04.478Z,1.67
2022-08-09T00:24:32.139Z,1.60
2022-08-09T00:27:00.358Z,1.38
2022-08-09T00:30:10.078Z,1.30
2022-08-09T00:32:25.493Z,2.00
2022-08-09T00:34:54.834Z,1.58
2022-08-09T00:40:13.968Z,2.20
2022-08-09T00:44:13.805Z,1.50
2022-08-09T00:47:52.760Z,1.30
2022-08-09T00:50:23.295Z,2.00
2022-08-09T00:52:50.621Z,2.60
2022-08-09T00:56:03.767Z,2.03
2022-08-09T00:58:06.173Z,2.00
2022-08-09T01:00:40.576Z,2.00
2022-08-09T01:03:20.420Z,2.05
2022-08-09T01:06:18.138Z,1.90
2022-08-09T01:09:11.769Z,2.22
2022-08-09T01:11:56.180Z,2.30
2022-08-09T01:14:33.436Z,2.10
2022-08-09T01:17:17.889Z,1.85
2022-08-09T01:20:02.291Z,2.00
2022-08-09T01:23:05.588Z,2.38
2022-08-09T01:26:11.232Z,2.10
2022-08-09T01:28:47.442Z,2.65
2022-08-09T01:32:27.971Z,2.85
2022-08-09T01:34:10.799Z,2.40
2022-08-09T01:36:41.140Z,2.78
2022-08-09T01:39:08.857Z,2.40
2022-08-09T01:42:01.276Z,2.40
2022-08-09T01:44:29.886Z,2.60
2022-08-09T01:47:00.818Z,2.80
2022-08-09T01:49:38.909Z,2.85
2022-08-09T01:52:14.518Z,2.30
2022-08-09T01:54:48.868Z,3.22
2022-08-09T01:57:21.668Z,2.78
2022-08-09T01:59:52.857Z,2.90
2022-08-09T02:02:30.909Z,2.88
2022-08-09T02:05:05.501Z,3.00
2022-08-09T02:08:35.281Z,3.38
2022-08-09T02:10:29.765Z,3.28
2022-08-09T02:13:01.017Z,3.55
2022-08-09T02:15:49.668Z,3.60
2022-08-09T02:18:19.563Z,3.45
2022-08-09T02:20:55.221Z,3.40
2022-08-09T02:23:39.726Z,3.75
2022-08-09T02:26:25.390Z,3.75
2022-08-09T02:29:00.265Z,3.85
2022-08-09T02:31:39.264Z,3.53
2022-08-09T02:34:38.744Z,4.05
2022-08-09T02:37:03.298Z,3.75
2022-08-09T02:39:41.763Z,4.53
2022-08-09T02:42:16.828Z,3.60
2022-08-09T02:44:52.764Z,4.10
2022-08-09T02:47:22.326Z,4.05
2022-08-09T02:50:11.674Z,4.75
2022-08-09T02:52:57.767Z,5.18
2022-08-09T02:55:39.415Z,4.75
2022-08-09T02:58:32.312Z,4.55
2022-08-09T03:01:06.108Z,4.97
2022-08-09T03:03:48.057Z,4.03
2022-08-09T03:06:25.033Z,4.85
2022-08-09T03:08:55.836Z,3.92
2022-08-09T03:12:04.312Z,4.55
2022-08-09T03:14:12.756Z,5.32
2022-08-09T03:16:44.756Z,5.78
2022-08-09T03:19:57.651Z,4.97
2022-08-09T03:22:12.541Z,5.95
2022-08-09T03:24:52.414Z,5.22
2022-08-09T03:27:21.532Z,5.38
2022-08-09T03:30:01.094Z,5.20
2022-08-09T03:32:31.261Z,5.55
2022-08-09T03:35:00.617Z,5.22
2022-08-09T03:37:54.286Z,4.60
2022-08-09T03:40:18.183Z,5.75
2022-08-09T03:42:46.612Z,4.88
2022-08-09T03:45:13.817Z,5.75
2022-08-09T03:47:46.391Z,5.20
2022-08-09T03:50:14.266Z,5.55
2022-08-09T03:52:46.145Z,5.47
2022-08-09T03:55:14.601Z,5.60
2022-08-09T03:57:57.431Z,5.93
2022-08-09T04:00:31.044Z,5.13
2022-08-09T04:02:59.588Z,5.00
2022-08-09T04:05:28.121Z,7.28
2022-08-09T04:07:57.215Z,6.00
2022-08-09T04:10:29.257Z,5.63
2022-08-09T04:13:03.986Z,5.43
2022-08-09T04:16:18.756Z,5.57
2022-08-09T04:18:21.648Z,5.35
2022-08-09T04:20:49.922Z,5.35
2022-08-09T04:23:24.431Z,5.43
2022-08-09T04:25:52.976Z,4.93
2022-08-09T04:28:30.819Z,5.28
2022-08-09T04:31:00.501Z,5.72
2022-08-09T04:33:53.176Z,5.57
2022-08-09T04:36:24.560Z,4.95
2022-08-09T04:38:52.330Z,4.63
2022-08-09T04:41:19.494Z,4.68
2022-08-09T04:44:05.066Z,4.93
2022-08-09T04:46:57.636Z,4.10
2022-08-09T04:52:09.694Z,3.83
2022-08-09T04:54:36.775Z,3.55
2022-08-09T04:57:04.468Z,3.72
2022-08-09T05:01:58.848Z,3.15
2022-08-09T05:04:31.142Z,3.17
2022-08-09T05:06:58.629Z,2.63
2022-08-09T05:09:25.526Z,3.03
2022-08-09T05:12:12.671Z,2.53
2022-08-09T05:14:41.072Z,2.55
2022-08-09T05:18:39.244Z,2.63
2022-08-09T05:19:56.992Z,2.30
2022-08-09T05:22:35.005Z,2.70
2022-08-09T05:25:06.869Z,2.50
2022-08-09T05:27:45.586Z,2.60
2022-08-09T05:30:17.590Z,2.30
2022-08-09T05:32:51.001Z,2.55
2022-08-09T05:35:23.857Z,2.28
2022-08-09T05:37:51.417Z,2.15
2022-08-09T05:40:18.675Z,2.70
2022-08-09T05:42:49.959Z,2.90
2022-08-09T05:45:17.576Z,3.15
2022-08-09T05:47:50.848Z,2.88
2022-08-09T05:50:36.157Z,2.50
2022-08-09T05:53:21.834Z,2.38
2022-08-09T05:55:58.857Z,3.38
2022-08-09T05:58:25.639Z,3.13
2022-08-09T06:00:54.197Z,3.15
2022-08-09T06:03:21.382Z,3.67
2022-08-09T06:06:04.413Z,3.30
2022-08-09T06:08:33.925Z,2.97
2022-08-09T06:11:00.998Z,2.83
2022-08-09T06:13:34.070Z,3.50
2022-08-09T06:16:04.905Z,2.97
2022-08-09T06:18:32.820Z,4.28
2022-08-09T06:21:01.353Z,3.30
2022-08-09T06:23:57.207Z,3.50
2022-08-09T06:26:22.790Z,3.22
2022-08-09T06:29:00.638Z,3.15
2022-08-09T06:31:39.709Z,3.70
2022-08-09T06:34:22.883Z,3.33
2022-08-09T06:36:57.427Z,3.10
2022-08-09T06:39:38.811Z,3.33
2022-08-09T06:42:19.874Z,4.07
2022-08-09T06:44:51.846Z,4.03
2022-08-09T06:47:22.256Z,3.30
2022-08-09T06:50:13.861Z,3.10
2022-08-09T06:52:47.315Z,3.30
2022-08-09T06:58:01.907Z,2.88
2022-08-09T07:00:48.976Z,4.30
2022-08-09T07:03:17.900Z,3.28
2022-08-09T07:05:58.465Z,3.00
2022-08-09T07:08:31.407Z,3.83
2022-08-09T07:10:58.320Z,3.45
2022-08-09T07:13:28.066Z,3.67
2022-08-09T07:16:43.269Z,4.18
2022-08-09T07:18:43.882Z,3.53
2022-08-09T07:21:14.466Z,4.13
2022-08-09T07:23:56.415Z,3.58
2022-08-09T07:26:26.313Z,3.83
2022-08-09T07:29:07.981Z,2.45
2022-08-09T07:31:45.162Z,3.05
2022-08-09T07:34:20.691Z,3.03
2022-08-09T07:36:52.845Z,2.78
2022-08-09T07:39:40.556Z,3.78
2022-08-09T07:42:08.028Z,2.80
2022-08-09T07:44:51.648Z,3.13
2022-08-09T07:47:21.636Z,3.70
2022-08-09T07:50:05.533Z,3.85
2022-08-09T07:52:36.011Z,3.80
2022-08-09T07:55:08.781Z,3.78
2022-08-09T07:57:36.905Z,3.78
2022-08-09T08:00:08.938Z,3.70
2022-08-09T08:02:42.990Z,2.80
2022-08-09T08:05:17.900Z,3.00
2022-08-09T08:09:01.224Z,3.80
2022-08-09T08:10:36.048Z,3.08
2022-08-09T08:13:06.840Z,2.90
2022-08-09T08:15:37.803Z,3.85
2022-08-09T08:18:06.365Z,2.78
2022-08-09T08:20:33.679Z,3.15
2022-08-09T08:23:06.602Z,3.20
2022-08-09T08:25:45.978Z,3.22
2022-08-09T08:28:17.971Z,3.80
2022-08-09T08:30:55.295Z,2.75
2022-08-09T08:33:24.177Z,2.53
2022-08-09T08:35:58.897Z,3.30
2022-08-09T08:38:28.029Z,1.77
2022-08-09T08:40:56.460Z,3.03
2022-08-09T08:43:24.487Z,3.30
2022-08-09T08:46:24.946Z,3.38
2022-08-09T08:48:54.136Z,3.95
2022-08-09T08:51:22.904Z,3.15
2022-08-09T08:54:03.926Z,2.50
2022-08-09T08:56:38.457Z,2.90
2022-08-09T08:59:19.973Z,2.60
2022-08-09T09:01:53.162Z,2.88
2022-08-09T09:04:31.926Z,3.30
2022-08-09T09:07:11.057Z,2.90
2022-08-09T09:10:02.881Z,2.75
2022-08-09T09:12:35.535Z,2.70
2022-08-09T09:15:05.835Z,1.48
2022-08-09T09:17:48.248Z,2.50
2022-08-09T09:20:16.781Z,3.30
2022-08-09T09:23:01.847Z,2.38
2022-08-09T09:26:04.330Z,2.72
2022-08-09T09:28:39.055Z,2.80
2022-08-09T09:32:05.965Z,0.80
2022-08-09T09:34:14.514Z,2.28
2022-08-09T09:36:52.900Z,3.20
2022-08-09T09:39:23.375Z,2.50
2022-08-09T09:41:51.363Z,4.75
2022-08-09T09:44:27.513Z,2.58
2022-08-09T09:47:07.251Z,2.20
2022-08-09T09:50:07.207Z,1.95
2022-08-09T09:52:36.263Z,2.78
2022-08-09T09:55:28.778Z,1.73
2022-08-09T09:58:00.739Z,1.92
2022-08-09T10:00:29.122Z,2.92
2022-08-09T10:02:56.041Z,2.08
2022-08-09T10:05:26.961Z,2.17
2022-08-09T10:08:27.585Z,3.15
2022-08-09T10:10:55.874Z,2.60
2022-08-09T10:13:23.241Z,2.97
2022-08-09T10:16:58.004Z,2.58
2022-08-09T10:19:08.605Z,3.00
2022-08-09T10:21:46.100Z,2.55
2022-08-09T10:24:21.140Z,2.58
2022-08-09T10:26:59.179Z,2.40
2022-08-09T10:30:26.449Z,2.38
2022-08-09T10:32:38.697Z,2.72
2022-08-09T10:35:02.716Z,2.58
2022-08-09T10:37:29.954Z,2.35
2022-08-09T10:40:08.677Z,2.70
2022-08-09T10:42:39.205Z,2.40
2022-08-09T10:45:12.224Z,2.85
2022-08-09T10:48:30.430Z,2.50
2022-08-09T10:51:17.567Z,2.65
2022-08-09T10:54:12.498Z,3.22
2022-08-09T10:56:43.638Z,1.90
2022-08-09T10:59:30.704Z,2.20
2022-08-09T11:03:13.913Z,2.80
2022-08-09T11:05:25.480Z,2.03
2022-08-09T11:07:59.345Z,2.33
2022-08-09T11:10:47.144Z,2.83
2022-08-09T11:13:50.995Z,2.50
2022-08-09T11:16:34.816Z,2.47
2022-08-09T11:19:07.970Z,2.45
2022-08-09T11:21:57.295Z,2.45
2022-08-09T11:25:16.292Z,2.30
2022-08-09T11:28:04.791Z,2.92
2022-08-09T11:30:37.998Z,2.10
2022-08-09T11:33:35.181Z,2.65
2022-08-09T11:36:02.981Z,2.83
2022-08-09T11:38:34.074Z,2.78
2022-08-09T11:41:38.279Z,2.35
2022-08-09T11:44:08.013Z,2.67
2022-08-09T11:46:55.075Z,1.08
2022-08-09T11:50:55.557Z,1.70
2022-08-09T11:53:21.497Z,1.52
2022-08-09T11:55:52.369Z,2.10
2022-08-09T11:58:30.490Z,2.30
2022-08-09T12:01:37.546Z,2.03
2022-08-09T12:04:20.748Z,2.30
2022-08-09T12:06:56.282Z,1.80
2022-08-09T12:09:33.721Z,2.35
2022-08-09T12:12:13.015Z,1.60
2022-08-09T12:15:07.172Z,2.97
2022-08-09T12:17:45.684Z,2.60
2022-08-09T12:20:26.461Z,2.17
2022-08-09T12:23:04.711Z,2.47
2022-08-09T12:25:37.298Z,2.83
2022-08-09T12:29:14.885Z,2.17
2022-08-09T12:31:31.199Z,1.83
2022-08-09T12:34:15.401Z,2.22
2022-08-09T12:36:58.940Z,2.40
2022-08-09T12:39:41.037Z,2.40
2022-08-09T12:42:10.097Z,2.88
2022-08-09T12:44:54.460Z,2.70
2022-08-09T12:47:23.006Z,2.17
2022-08-09T12:50:11.186Z,2.10
2022-08-09T12:53:09.018Z,2.22
2022-08-09T12:56:15.740Z,2.42
2022-08-09T12:58:24.459Z,2.10
2022-08-09T13:00:55.798Z,2.30
2022-08-09T13:03:52.614Z,2.78
2022-08-09T13:06:34.691Z,2.45
2022-08-09T13:09:06.640Z,2.40
2022-08-09T13:11:42.578Z,1.33
2022-08-09T13:14:41.192Z,2.42
2022-08-09T13:17:44.078Z,2.25
2022-08-09T13:20:16.047Z,1.95
2022-08-09T13:24:06.200Z,1.95
2022-08-09T13:25:53.203Z,2.08
2022-08-09T13:28:34.475Z,1.77
2022-08-09T13:32:13.484Z,1.80
2022-08-09T13:33:56.918Z,2.08
2022-08-09T13:36:41.384Z,2.13
2022-08-09T13:41:45.905Z,2.95
2022-08-09T13:42:12.674Z,2.60
2022-08-09T13:44:59.258Z,2.40
2022-08-09T13:47:48.943Z,2.03
2022-08-09T13:50:30.388Z,2.25
2022-08-09T13:52:58.565Z,2.08
2022-08-09T13:55:33.207Z,2.10
2022-08-09T13:58:00.866Z,2.17
2022-08-09T14:00:46.818Z,1.77
2022-08-09T14:04:01.106Z,2.05
2022-08-09T14:06:26.427Z,2.40
2022-08-09T14:08:58.860Z,1.80
2022-08-09T14:11:26.616Z,1.90
2022-08-09T14:14:23.421Z,1.95
2022-08-09T14:16:44.169Z,2.25
2022-08-09T14:21:44.280Z,2.35
2022-08-09T14:24:22.118Z,2.13
2022-08-09T14:27:02.400Z,2.55
2022-08-09T14:30:35.399Z,2.25
2022-08-09T14:32:19.994Z,2.25
2022-08-09T14:35:03.307Z,2.13
2022-08-09T14:37:31.216Z,1.98
2022-08-09T14:40:28.226Z,1.92
2022-08-09T14:43:06.834Z,2.58
2022-08-09T14:46:54.266Z,2.08
2022-08-09T14:48:20.763Z,2.38
2022-08-09T14:50:53.663Z,2.00
2022-08-09T14:53:21.801Z,1.88
2022-08-09T14:55:52.744Z,1.90
2022-08-09T14:58:21.505Z,2.00
2022-08-09T15:00:51.069Z,2.08
2022-08-09T15:03:20.243Z,2.63
2022-08-09T15:05:51.415Z,1.98
2022-08-09T15:08:23.823Z,2.17
2022-08-09T15:11:01.304Z,1.80
2022-08-09T15:13:48.395Z,1.70
2022-08-09T15:16:16.628Z,1.60
2022-08-09T15:18:44.270Z,2.15
2022-08-09T15:21:55.463Z,1.50
2022-08-09T15:24:12.867Z,2.33
2022-08-09T15:26:45.466Z,1.70
2022-08-09T15:30:55.875Z,2.10
2022-08-09T15:32:00.777Z,1.70
2022-08-09T15:34:34.662Z,1.67
2022-08-09T15:37:04.141Z,2.10
2022-08-09T15:39:34.600Z,1.98
2022-08-09T15:42:02.326Z,1.80
2022-08-09T15:44:29.359Z,2.30
2022-08-09T15:46:59.628Z,1.90
2022-08-09T15:49:28.559Z,1.75
2022-08-09T15:52:05.127Z,2.30
2022-08-09T15:54:51.464Z,2.40
2022-08-09T15:57:33.884Z,1.90
2022-08-09T16:00:14.790Z,2.30
2022-08-09T16:02:53.773Z,1.90
2022-08-09T16:05:22.275Z,1.80
2022-08-09T16:07:50.803Z,2.03
2022-08-09T16:10:55.533Z,2.50
2022-08-09T16:13:18.482Z,1.38
2022-08-09T16:16:12.274Z,1.85
2022-08-09T16:18:35.424Z,1.90
2022-08-09T16:21:02.428Z,2.30
2022-08-09T16:23:29.294Z,2.08
2022-08-09T16:26:02.827Z,2.00
2022-08-09T16:28:29.887Z,2.22
2022-08-09T16:30:59.159Z,2.53
2022-08-09T16:33:27.048Z,2.38
2022-08-09T16:35:58.428Z,1.27
2022-08-09T16:38:27.928Z,2.10
2022-08-09T16:40:56.866Z,2.47
2022-08-09T16:43:24.751Z,1.85
2022-08-09T16:45:54.156Z,1.90
2022-08-09T16:48:41.798Z,1.98
2022-08-09T16:51:13.674Z,2.30
2022-08-09T16:54:16.049Z,2.15
2022-08-09T16:56:31.039Z,2.22
2022-08-09T16:58:59.007Z,1.88
2022-08-09T17:01:26.226Z,1.88
2022-08-09T17:03:54.368Z,1.83
2022-08-09T17:06:32.143Z,1.88
2022-08-09T17:09:16.161Z,1.70
2022-08-09T17:11:49.133Z,1.90
2022-08-09T17:14:25.606Z,1.92
2022-08-09T17:17:02.951Z,1.88
2022-08-09T17:19:46.511Z,1.85
2022-08-09T17:22:14.046Z,2.10
2022-08-09T17:24:47.563Z,1.45
2022-08-09T17:27:21.581Z,1.90
2022-08-09T17:32:26.702Z,1.70
2022-08-09T17:35:11.637Z,1.60
2022-08-09T17:38:13.026Z,1.80
2022-08-09T17:40:33.399Z,1.75
2022-08-09T17:43:33.485Z,2.33
2022-08-09T17:46:04.430Z,1.75
2022-08-09T17:48:39.776Z,1.63
2022-08-09T17:51:17.519Z,1.65
2022-08-09T17:53:55.525Z,1.45
2022-08-09T17:56:29.289Z,1.70
2022-08-09T17:59:08.873Z,2.10
2022-08-09T18:01:58.116Z,1.75
2022-08-09T18:04:27.249Z,1.80
2022-08-09T18:09:39.987Z,1.77
2022-08-09T18:12:17.462Z,2.00
2022-08-09T18:14:55.217Z,1.92
2022-08-09T18:18:01.313Z,1.60
2022-08-09T18:20:54.132Z,1.88
2022-08-09T18:23:04.818Z,1.55
2022-08-09T18:25:52.827Z,1.50
2022-08-09T18:30:41.059Z,1.83
2022-08-09T18:31:10.403Z,2.20
2022-08-09T18:33:37.321Z,1.60
2022-08-09T18:36:08.750Z,1.80
2022-08-09T18:38:41.570Z,1.83
2022-08-09T18:43:35.776Z,1.95
2022-08-09T18:46:47.067Z,1.75
2022-08-09T18:48:51.211Z,1.83
2022-08-09T18:51:18.050Z,1.90
2022-08-09T18:56:43.346Z,1.40
2022-08-09T18:59:10.206Z,1.98
2022-08-09T19:01:46.033Z,1.98
2022-08-09T19:04:13.720Z,1.67
2022-08-09T19:09:34.016Z,2.03
2022-08-09T19:12:07.599Z,1.98
2022-08-09T19:14:34.954Z,1.50
2022-08-09T19:17:05.335Z,1.88
2022-08-09T19:19:41.279Z,2.08
2022-08-09T19:22:08.313Z,1.50
2022-08-09T19:25:09.156Z,1.90
2022-08-09T19:27:25.857Z,1.83
2022-08-09T19:30:21.596Z,1.90
2022-08-09T19:32:43.030Z,2.10
2022-08-09T19:35:10.078Z,1.80
2022-08-09T19:37:53.989Z,1.80
2022-08-09T19:40:22.080Z,2.20
2022-08-09T19:45:17.824Z,2.00
2022-08-09T19:47:45.734Z,1.63
2022-08-09T19:50:49.376Z,1.95
2022-08-09T19:53:02.349Z,1.58
2022-08-09T19:56:02.879Z,1.83
2022-08-09T19:58:30.155Z,1.48
2022-08-09T20:00:58.326Z,2.20
2022-08-09T20:04:18.113Z,1.80
2022-08-09T20:08:57.593Z,1.63
2022-08-09T20:11:27.195Z,1.85
2022-08-09T20:14:13.096Z,1.70
2022-08-09T20:16:50.256Z,2.20
2022-08-09T20:19:48.669Z,1.67
2022-08-09T20:22:10.191Z,2.08
2022-08-09T20:24:41.890Z,1.70
2022-08-09T20:27:08.977Z,1.95
2022-08-09T20:29:39.450Z,2.40
2022-08-09T20:32:30.442Z,1.90
2022-08-09T20:34:59.657Z,2.30
2022-08-09T20:38:18.801Z,2.72
2022-08-09T20:43:12.249Z,1.85
2022-08-09T20:45:57.293Z,2.00
2022-08-09T20:48:31.387Z,2.90
2022-08-09T20:50:59.766Z,2.42
2022-08-09T20:53:36.867Z,2.17
2022-08-09T20:56:20.919Z,3.65
2022-08-09T20:58:54.637Z,2.20
2022-08-09T21:01:34.842Z,2.55
2022-08-09T21:05:49.360Z,2.70
2022-08-09T21:07:12.079Z,2.70
2022-08-09T21:09:45.405Z,2.47
2022-08-09T21:12:23.390Z,2.42
2022-08-09T21:14:50.347Z,2.60
2022-08-09T21:18:22.981Z,2.95
2022-08-09T21:20:22.801Z,2.90
2022-08-09T21:22:54.629Z,2.85
2022-08-09T21:25:44.399Z,2.97
2022-08-09T21:28:34.912Z,2.90
2022-08-09T21:31:17.668Z,3.30
2022-08-09T21:33:53.251Z,3.00
2022-08-09T21:36:27.880Z,3.03
2022-08-09T21:38:57.338Z,3.47
2022-08-09T21:42:04.826Z,2.78
2022-08-09T21:44:33.444Z,2.90
2022-08-09T21:47:08.872Z,3.25
2022-08-09T21:49:42.960Z,2.95
2022-08-09T21:52:14.821Z,3.22
2022-08-09T21:55:04.821Z,3.15
2022-08-09T21:57:38.764Z,3.83
2022-08-09T22:00:33.477Z,3.58
2022-08-09T22:03:04.666Z,3.00
2022-08-09T22:05:37.668Z,3.45
2022-08-09T22:08:13.850Z,2.80
2022-08-09T22:11:50.563Z,3.88
2022-08-09T22:13:34.816Z,3.60
2022-08-09T22:16:04.700Z,2.90
2022-08-09T22:18:35.327Z,3.17
2022-08-09T22:21:09.341Z,3.28
2022-08-09T22:23:59.084Z,2.85
2022-08-09T22:26:34.878Z,2.90
2022-08-09T22:29:09.907Z,2.85
2022-08-09T22:31:50.500Z,3.65
2022-08-09T22:34:27.941Z,3.22
2022-08-09T22:36:59.519Z,3.00
2022-08-09T22:39:55.321Z,2.47
2022-08-09T22:42:21.886Z,3.10
2022-08-09T22:48:06.018Z,3.17
2022-08-09T22:48:13.132Z,2.70
2022-08-09T22:50:30.982Z,2.83
2022-08-09T22:53:03.983Z,2.85
2022-08-09T22:56:06.395Z,2.90
2022-08-09T22:58:31.010Z,3.15
2022-08-09T23:01:02.131Z,3.15
2022-08-09T23:04:02.349Z,2.75
2022-08-09T23:06:35.118Z,2.80
2022-08-09T23:09:06.026Z,2.50
2022-08-09T23:11:33.259Z,2.67
2022-08-09T23:14:00.122Z,2.40
2022-08-09T23:16:26.924Z,2.47
2022-08-09T23:18:53.722Z,2.58
2022-08-09T23:21:25.314Z,2.67
2022-08-09T23:24:01.537Z,2.35
2022-08-09T23:26:41.283Z,3.45
2022-08-09T23:29:11.757Z,2.55
2022-08-09T23:31:39.116Z,2.35
2022-08-09T23:34:06.319Z,2.28
2022-08-09T23:36:34.653Z,2.50
2022-08-09T23:39:04.045Z,2.70
2022-08-09T23:41:31.248Z,2.72
2022-08-09T23:46:28.326Z,2.60
2022-08-09T23:48:59.411Z,3.15
2022-08-09T23:51:27.779Z,2.97
2022-08-09T23:54:01.993Z,2.70
2022-08-09T23:56:52.860Z,2.17
2022-08-09T23:59:21.189Z,2.80
